sensor_id;sensor_type;location;lat;lon;timestamp;temperature;humidity
35668;DHT22;22158;59.280;17.806;2023-02-11T05:01:58;0.90;99.90
35668;DHT22;22158;59.280;17.806;2023-02-11T05:04:24;0.90;99.90
35668;DHT22;22158;59.280;17.806;2023-02-11T05:06:50;1.00;99.90
35668;DHT22;22158;59.280;17.806;2023-02-11T05:09:15;0.90;99.90
35668;DHT22;22158;59.280;17.806;2023-02-11T05:11:43;0.90;99.90
35668;DHT22;22158;59.280;17.806;2023-02-11T05:14:08;0.90;99.90
35668;DHT22;22158;59.280;17.806;2023-02-11T05:16:34;0.90;99.90
35668;DHT22;22158;59.280;17.806;2023-02-11T05:19:00;0.90;99.90
35668;DHT22;22158;59.280;17.806;2023-02-11T05:21:25;1.00;99.90
35668;DHT22;22158;59.280;17.806;2023-02-11T05:23:51;0.90;99.90
35668;DHT22;22158;59.280;17.806;2023-02-11T05:26:17;0.90;99.90
35668;DHT22;22158;59.280;17.806;2023-02-11T05:28:43;1.00;99.90
35668;DHT22;22158;59.280;17.806;2023-02-11T05:31:10;0.90;99.90
35668;DHT22;22158;59.280;17.806;2023-02-11T05:33:36;0.90;99.90
35668;DHT22;22158;59.280;17.806;2023-02-11T05:36:05;0.90;99.90
35668;DHT22;22158;59.280;17.806;2023-02-11T05:38:32;0.90;99.90
35668;DHT22;22158;59.280;17.806;2023-02-11T05:40:58;0.90;99.90
35668;DHT22;22158;59.280;17.806;2023-02-11T05:43:23;0.90;99.90
35668;DHT22;22158;59.280;17.806;2023-02-11T05:45:49;0.90;99.90
35668;DHT22;22158;59.280;17.806;2023-02-11T05:48:15;0.80;99.90
35668;DHT22;22158;59.280;17.806;2023-02-11T05:50:41;0.80;99.90
35668;DHT22;22158;59.280;17.806;2023-02-11T05:53:07;0.70;99.90
35668;DHT22;22158;59.280;17.806;2023-02-11T05:55:33;0.70;99.90
35668;DHT22;22158;59.280;17.806;2023-02-11T05:57:58;0.70;99.90
35668;DHT22;22158;59.280;17.806;2023-02-11T06:00:24;0.60;99.90
35668;DHT22;22158;59.280;17.806;2023-02-11T06:02:50;0.60;99.90
35668;DHT22;22158;59.280;17.806;2023-02-11T06:05:16;0.60;99.90
35668;DHT22;22158;59.280;17.806;2023-02-11T06:07:42;0.50;99.90
35668;DHT22;22158;59.280;17.806;2023-02-11T06:10:08;0.50;99.90
35668;DHT22;22158;59.280;17.806;2023-02-11T06:12:36;0.40;99.90
35668;DHT22;22158;59.280;17.806;2023-02-11T06:15:02;0.40;99.90
35668;DHT22;22158;59.280;17.806;2023-02-11T06:17:28;0.30;99.90
35668;DHT22;22158;59.280;17.806;2023-02-11T06:19:58;0.20;99.90
35668;DHT22;22158;59.280;17.806;2023-02-11T06:22:24;0.10;99.90
35668;DHT22;22158;59.280;17.806;2023-02-11T06:24:50;0.10;99.90
35668;DHT22;22158;59.280;17.806;2023-02-11T06:27:16;0.00;99.90
35668;DHT22;22158;59.280;17.806;2023-02-11T06:29:43;0.00;99.90
35668;DHT22;22158;59.280;17.806;2023-02-11T06:32:09;0.00;99.90
35668;DHT22;22158;59.280;17.806;2023-02-11T06:34:35;-0.10;99.90
35668;DHT22;22158;59.280;17.806;2023-02-11T06:37:01;-0.10;99.90
35668;DHT22;22158;59.280;17.806;2023-02-11T06:39:27;-0.20;99.90
35668;DHT22;22158;59.280;17.806;2023-02-11T06:41:53;-0.20;99.90
35668;DHT22;22158;59.280;17.806;2023-02-11T06:44:18;-0.20;99.90
35668;DHT22;22158;59.280;17.806;2023-02-11T06:46:44;-0.20;99.90
35668;DHT22;22158;59.280;17.806;2023-02-11T06:49:10;-0.30;99.90
35668;DHT22;22158;59.280;17.806;2023-02-11T06:51:36;-0.30;99.90
35668;DHT22;22158;59.280;17.806;2023-02-11T06:54:03;-0.30;99.90
35668;DHT22;22158;59.280;17.806;2023-02-11T06:56:29;-0.20;99.90
35668;DHT22;22158;59.280;17.806;2023-02-11T06:58:55;-0.30;99.90
35668;DHT22;22158;59.280;17.806;2023-02-11T07:01:21;-0.30;99.90
35668;DHT22;22158;59.280;17.806;2023-02-11T07:03:48;-0.40;99.90
35668;DHT22;22158;59.280;17.806;2023-02-11T07:06:16;-0.40;99.90
35668;DHT22;22158;59.280;17.806;2023-02-11T07:08:43;-0.40;99.90
35668;DHT22;22158;59.280;17.806;2023-02-11T07:11:23;-0.40;99.90
35668;DHT22;22158;59.280;17.806;2023-02-11T07:13:49;-0.50;99.90
35668;DHT22;22158;59.280;17.806;2023-02-11T07:16:17;-0.50;99.90
35668;DHT22;22158;59.280;17.806;2023-02-11T07:18:44;-0.50;99.90
35668;DHT22;22158;59.280;17.806;2023-02-11T07:21:12;-0.50;99.90
35668;DHT22;22158;59.280;17.806;2023-02-11T07:23:38;-0.50;99.90
35668;DHT22;22158;59.280;17.806;2023-02-11T07:26:07;-0.50;99.90
35668;DHT22;22158;59.280;17.806;2023-02-11T07:28:33;-0.50;99.90
35668;DHT22;22158;59.280;17.806;2023-02-11T07:31:04;-0.50;99.90
35668;DHT22;22158;59.280;17.806;2023-02-11T07:33:30;-0.60;99.90
35668;DHT22;22158;59.280;17.806;2023-02-11T07:35:59;-0.60;99.90
35668;DHT22;22158;59.280;17.806;2023-02-11T07:38:25;-0.60;99.90
35668;DHT22;22158;59.280;17.806;2023-02-11T07:40:51;-0.60;99.90
35668;DHT22;22158;59.280;17.806;2023-02-11T07:43:16;-0.60;99.90
35668;DHT22;22158;59.280;17.806;2023-02-11T07:45:42;-0.60;99.90
35668;DHT22;22158;59.280;17.806;2023-02-11T07:48:08;-0.60;99.90
35668;DHT22;22158;59.280;17.806;2023-02-11T07:50:33;-0.70;99.90
35668;DHT22;22158;59.280;17.806;2023-02-11T07:52:59;-0.60;99.90
35668;DHT22;22158;59.280;17.806;2023-02-11T07:55:24;-0.60;99.90
35668;DHT22;22158;59.280;17.806;2023-02-11T07:57:50;-0.60;99.90
35668;DHT22;22158;59.280;17.806;2023-02-11T08:00:16;-0.70;99.90
35668;DHT22;22158;59.280;17.806;2023-02-11T08:02:42;-0.70;99.90
35668;DHT22;22158;59.280;17.806;2023-02-11T08:05:08;-0.70;99.90
35668;DHT22;22158;59.280;17.806;2023-02-11T08:07:33;-0.70;99.90
35668;DHT22;22158;59.280;17.806;2023-02-11T08:09:59;-0.70;99.90
35668;DHT22;22158;59.280;17.806;2023-02-11T08:12:25;-0.70;99.90
35668;DHT22;22158;59.280;17.806;2023-02-11T08:14:50;-0.70;99.90
35668;DHT22;22158;59.280;17.806;2023-02-11T08:17:16;-0.80;99.90
35668;DHT22;22158;59.280;17.806;2023-02-11T08:19:42;-0.80;99.90
35668;DHT22;22158;59.280;17.806;2023-02-11T08:22:07;-0.80;99.90
35668;DHT22;22158;59.280;17.806;2023-02-11T08:24:33;-0.70;99.90
35668;DHT22;22158;59.280;17.806;2023-02-11T08:26:59;-0.70;99.90
35668;DHT22;22158;59.280;17.806;2023-02-11T08:29:24;-0.70;99.90
35668;DHT22;22158;59.280;17.806;2023-02-11T08:31:50;-0.70;99.90
35668;DHT22;22158;59.280;17.806;2023-02-11T08:34:16;-0.70;99.90
35668;DHT22;22158;59.280;17.806;2023-02-11T08:36:45;-0.70;99.90
35668;DHT22;22158;59.280;17.806;2023-02-11T08:39:20;-0.70;99.90
35668;DHT22;22158;59.280;17.806;2023-02-11T08:41:51;-0.60;99.90
35668;DHT22;22158;59.280;17.806;2023-02-11T08:44:18;-0.60;99.90
35668;DHT22;22158;59.280;17.806;2023-02-11T08:46:44;-0.60;99.90
35668;DHT22;22158;59.280;17.806;2023-02-11T08:49:10;-0.50;99.90
35668;DHT22;22158;59.280;17.806;2023-02-11T08:51:36;-0.50;99.90
35668;DHT22;22158;59.280;17.806;2023-02-11T08:54:02;-0.50;99.90
35668;DHT22;22158;59.280;17.806;2023-02-11T08:56:28;-0.50;99.90
35668;DHT22;22158;59.280;17.806;2023-02-11T08:58:56;-0.50;99.90
35668;DHT22;22158;59.280;17.806;2023-02-11T09:01:24;-0.50;99.90
35668;DHT22;22158;59.280;17.806;2023-02-11T09:03:50;-0.50;99.90
35668;DHT22;22158;59.280;17.806;2023-02-11T09:06:16;-0.50;99.90
35668;DHT22;22158;59.280;17.806;2023-02-11T09:08:45;-0.50;99.90
35668;DHT22;22158;59.280;17.806;2023-02-11T09:11:11;-0.50;99.90
35668;DHT22;22158;59.280;17.806;2023-02-11T09:13:39;-0.50;99.90
35668;DHT22;22158;59.280;17.806;2023-02-11T09:16:05;-0.50;99.90
35668;DHT22;22158;59.280;17.806;2023-02-11T09:18:31;-0.50;99.90
35668;DHT22;22158;59.280;17.806;2023-02-11T09:21:04;-0.50;99.90
35668;DHT22;22158;59.280;17.806;2023-02-11T09:23:30;-0.60;99.90
35668;DHT22;22158;59.280;17.806;2023-02-11T09:25:59;-0.50;99.90
35668;DHT22;22158;59.280;17.806;2023-02-11T09:28:25;-0.60;99.90
35668;DHT22;22158;59.280;17.806;2023-02-11T09:30:51;-0.60;99.90
35668;DHT22;22158;59.280;17.806;2023-02-11T09:33:16;-0.60;99.90
35668;DHT22;22158;59.280;17.806;2023-02-11T09:35:42;-0.50;99.90
35668;DHT22;22158;59.280;17.806;2023-02-11T09:38:08;-0.50;99.90
35668;DHT22;22158;59.280;17.806;2023-02-11T09:40:34;-0.40;99.90
35668;DHT22;22158;59.280;17.806;2023-02-11T09:46:10;-0.40;99.90
35668;DHT22;22158;59.280;17.806;2023-02-11T09:48:40;-0.40;99.90
35668;DHT22;22158;59.280;17.806;2023-02-11T09:51:18;-0.30;99.90
35668;DHT22;22158;59.280;17.806;2023-02-11T09:53:44;-0.30;99.90
35668;DHT22;22158;59.280;17.806;2023-02-11T09:56:14;-0.30;99.90
35668;DHT22;22158;59.280;17.806;2023-02-11T09:58:41;-0.30;99.90
35668;DHT22;22158;59.280;17.806;2023-02-11T10:06:40;-0.40;99.90
35668;DHT22;22158;59.280;17.806;2023-02-11T10:23:32;-0.30;99.90
35668;DHT22;22158;59.280;17.806;2023-02-11T10:26:00;-0.30;99.90
35668;DHT22;22158;59.280;17.806;2023-02-11T10:28:33;-0.30;99.90
35668;DHT22;22158;59.280;17.806;2023-02-11T10:31:19;-0.30;99.90
35668;DHT22;22158;59.280;17.806;2023-02-11T10:34:05;-0.30;99.90
35668;DHT22;22158;59.280;17.806;2023-02-11T10:36:36;-0.30;99.90
35668;DHT22;22158;59.280;17.806;2023-02-11T10:39:12;-0.30;99.90
35668;DHT22;22158;59.280;17.806;2023-02-11T10:41:42;-0.30;99.90
35668;DHT22;22158;59.280;17.806;2023-02-11T10:44:32;-0.30;99.90
35668;DHT22;22158;59.280;17.806;2023-02-11T10:47:14;-0.30;99.90
35668;DHT22;22158;59.280;17.806;2023-02-11T10:49:44;-0.30;99.90
35668;DHT22;22158;59.280;17.806;2023-02-11T10:54:39;-0.30;99.90
35668;DHT22;22158;59.280;17.806;2023-02-11T10:57:05;-0.20;99.90
35668;DHT22;22158;59.280;17.806;2023-02-11T10:59:37;-0.20;99.90
35668;DHT22;22158;59.280;17.806;2023-02-11T11:02:25;-0.20;99.90
35668;DHT22;22158;59.280;17.806;2023-02-11T11:04:58;-0.20;99.90
35668;DHT22;22158;59.280;17.806;2023-02-11T11:07:29;-0.20;99.90
35668;DHT22;22158;59.280;17.806;2023-02-11T11:12:49;-0.40;99.90
35668;DHT22;22158;59.280;17.806;2023-02-11T11:15:22;-0.50;99.90
35668;DHT22;22158;59.280;17.806;2023-02-11T11:18:15;-0.50;99.90
35668;DHT22;22158;59.280;17.806;2023-02-11T11:20:57;-0.50;99.90
35668;DHT22;22158;59.280;17.806;2023-02-11T11:23:24;-0.50;99.90
35668;DHT22;22158;59.280;17.806;2023-02-11T11:26:11;-0.40;99.90
35668;DHT22;22158;59.280;17.806;2023-02-11T11:31:21;-0.40;99.90
35668;DHT22;22158;59.280;17.806;2023-02-11T11:33:47;-0.50;99.90
35668;DHT22;22158;59.280;17.806;2023-02-11T11:36:38;-0.40;99.90
35668;DHT22;22158;59.280;17.806;2023-02-11T11:39:29;-0.40;99.90
35668;DHT22;22158;59.280;17.806;2023-02-11T11:42:01;-0.30;99.90
35668;DHT22;22158;59.280;17.806;2023-02-11T11:44:34;-0.40;99.90
35668;DHT22;22158;59.280;17.806;2023-02-11T11:50:24;-0.40;99.90
35668;DHT22;22158;59.280;17.806;2023-02-11T11:52:45;-0.50;99.90
35668;DHT22;22158;59.280;17.806;2023-02-11T11:55:21;-0.40;99.90
35668;DHT22;22158;59.280;17.806;2023-02-11T11:57:49;-0.40;99.90
35668;DHT22;22158;59.280;17.806;2023-02-11T12:06:01;-0.20;99.90
35668;DHT22;22158;59.280;17.806;2023-02-11T12:11:26;-0.20;99.90
35668;DHT22;22158;59.280;17.806;2023-02-11T12:14:03;-0.20;99.90
35668;DHT22;22158;59.280;17.806;2023-02-11T12:19:20;0.00;99.90
35668;DHT22;22158;59.280;17.806;2023-02-11T12:22:06;0.00;99.90
35668;DHT22;22158;59.280;17.806;2023-02-11T12:41:08;-0.10;99.90
35668;DHT22;22158;59.280;17.806;2023-02-11T12:43:39;0.00;99.90
35668;DHT22;22158;59.280;17.806;2023-02-11T12:46:38;0.10;99.90
35668;DHT22;22158;59.280;17.806;2023-02-11T12:49:32;0.10;99.90
35668;DHT22;22158;59.280;17.806;2023-02-11T12:55:21;0.30;99.90
35668;DHT22;22158;59.280;17.806;2023-02-11T12:57:49;0.30;99.90
35668;DHT22;22158;59.280;17.806;2023-02-11T13:00:48;0.30;99.90
35668;DHT22;22158;59.280;17.806;2023-02-11T13:03:38;0.40;99.90
35668;DHT22;22158;59.280;17.806;2023-02-11T13:06:11;0.60;99.90
35668;DHT22;22158;59.280;17.806;2023-02-11T13:08:45;0.90;99.90
35668;DHT22;22158;59.280;17.806;2023-02-11T13:11:19;1.60;99.90
35668;DHT22;22158;59.280;17.806;2023-02-11T13:22:13;5.40;98.20
35668;DHT22;22158;59.280;17.806;2023-02-11T13:24:47;5.60;96.90
35668;DHT22;22158;59.280;17.806;2023-02-11T13:27:42;6.10;95.10
35668;DHT22;22158;59.280;17.806;2023-02-11T13:30:25;6.40;94.30
35668;DHT22;22158;59.280;17.806;2023-02-11T13:35:37;6.80;93.60
35668;DHT22;22158;59.280;17.806;2023-02-11T13:38:26;6.60;93.60
35668;DHT22;22158;59.280;17.806;2023-02-11T13:41:15;6.00;93.30
35668;DHT22;22158;59.280;17.806;2023-02-11T13:43:42;6.20;93.50
35668;DHT22;22158;59.280;17.806;2023-02-11T13:46:13;6.40;93.40
35668;DHT22;22158;59.280;17.806;2023-02-11T13:48:49;6.60;93.00
35668;DHT22;22158;59.280;17.806;2023-02-11T13:51:32;6.70;92.30
35668;DHT22;22158;59.280;17.806;2023-02-11T13:53:59;6.70;92.00
35668;DHT22;22158;59.280;17.806;2023-02-11T13:56:37;5.90;92.80
35668;DHT22;22158;59.280;17.806;2023-02-11T14:02:08;4.90;94.80
35668;DHT22;22158;59.280;17.806;2023-02-11T14:16:19;3.90;96.20
35668;DHT22;22158;59.280;17.806;2023-02-11T14:27:10;2.30;99.90
35668;DHT22;22158;59.280;17.806;2023-02-11T14:32:59;1.80;99.90
35668;DHT22;22158;59.280;17.806;2023-02-11T14:35:33;1.60;99.90
35668;DHT22;22158;59.280;17.806;2023-02-11T14:42:53;1.20;99.90
35668;DHT22;22158;59.280;17.806;2023-02-11T14:45:25;1.30;99.90
35668;DHT22;22158;59.280;17.806;2023-02-11T14:48:04;1.40;99.90
35668;DHT22;22158;59.280;17.806;2023-02-11T14:50:45;1.40;99.90
35668;DHT22;22158;59.280;17.806;2023-02-11T14:53:23;1.20;99.90
35668;DHT22;22158;59.280;17.806;2023-02-11T14:55:51;0.90;99.90
35668;DHT22;22158;59.280;17.806;2023-02-11T14:58:21;0.60;99.90
35668;DHT22;22158;59.280;17.806;2023-02-11T15:06:06;0.20;99.90
35668;DHT22;22158;59.280;17.806;2023-02-11T15:08:42;0.10;99.90
35668;DHT22;22158;59.280;17.806;2023-02-11T15:11:13;0.00;99.90
35668;DHT22;22158;59.280;17.806;2023-02-11T15:13:40;-0.10;99.90
35668;DHT22;22158;59.280;17.806;2023-02-11T15:16:12;-0.10;99.90
35668;DHT22;22158;59.280;17.806;2023-02-11T15:18:44;-0.20;99.90
35668;DHT22;22158;59.280;17.806;2023-02-11T15:21:10;-0.30;99.90
35668;DHT22;22158;59.280;17.806;2023-02-11T15:23:36;-0.30;99.90
35668;DHT22;22158;59.280;17.806;2023-02-11T15:26:17;-0.30;99.90
35668;DHT22;22158;59.280;17.806;2023-02-11T15:28:46;-0.40;99.90
35668;DHT22;22158;59.280;17.806;2023-02-11T15:31:20;-0.50;99.90
35668;DHT22;22158;59.280;17.806;2023-02-11T15:33:48;-0.50;99.90
35668;DHT22;22158;59.280;17.806;2023-02-11T15:36:15;-0.50;99.90
35668;DHT22;22158;59.280;17.806;2023-02-11T15:38:42;-0.60;99.90
35668;DHT22;22158;59.280;17.806;2023-02-11T15:41:36;-0.60;99.90
35668;DHT22;22158;59.280;17.806;2023-02-11T15:44:02;-0.70;99.90
35668;DHT22;22158;59.280;17.806;2023-02-11T15:46:37;-0.80;99.90
35668;DHT22;22158;59.280;17.806;2023-02-11T15:49:04;-0.80;99.90
35668;DHT22;22158;59.280;17.806;2023-02-11T15:51:33;-0.90;99.90
35668;DHT22;22158;59.280;17.806;2023-02-11T15:54:07;-1.00;99.90
35668;DHT22;22158;59.280;17.806;2023-02-11T15:56:40;-1.00;99.90
35668;DHT22;22158;59.280;17.806;2023-02-11T16:01:43;-1.10;99.90
35668;DHT22;22158;59.280;17.806;2023-02-11T16:04:18;-1.10;99.90
35668;DHT22;22158;59.280;17.806;2023-02-11T16:06:45;-1.20;99.90
35668;DHT22;22158;59.280;17.806;2023-02-11T16:14:34;-1.30;99.90
35668;DHT22;22158;59.280;17.806;2023-02-11T16:19:33;-1.30;99.90
35668;DHT22;22158;59.280;17.806;2023-02-11T16:22:05;-1.30;99.90
35668;DHT22;22158;59.280;17.806;2023-02-11T16:24:36;-1.40;99.90
35668;DHT22;22158;59.280;17.806;2023-02-11T16:27:13;-1.40;99.90
35668;DHT22;22158;59.280;17.806;2023-02-11T16:29:45;-1.50;99.90
35668;DHT22;22158;59.280;17.806;2023-02-11T16:32:15;-1.50;99.90
35668;DHT22;22158;59.280;17.806;2023-02-11T16:34:41;-1.50;99.90
35668;DHT22;22158;59.280;17.806;2023-02-11T16:37:06;-1.50;99.90
35668;DHT22;22158;59.280;17.806;2023-02-11T16:39:32;-1.60;99.90
35668;DHT22;22158;59.280;17.806;2023-02-11T16:41:58;-1.50;99.90
35668;DHT22;22158;59.280;17.806;2023-02-11T16:44:24;-1.60;99.90
35668;DHT22;22158;59.280;17.806;2023-02-11T16:46:51;-1.60;99.90
35668;DHT22;22158;59.280;17.806;2023-02-11T16:49:20;-1.60;99.90
35668;DHT22;22158;59.280;17.806;2023-02-11T16:51:49;-1.70;99.90
35668;DHT22;22158;59.280;17.806;2023-02-11T16:54:16;-1.70;99.90
35668;DHT22;22158;59.280;17.806;2023-02-11T16:56:43;-1.70;99.90
35668;DHT22;22158;59.280;17.806;2023-02-11T16:59:09;-1.70;99.90
35668;DHT22;22158;59.280;17.806;2023-02-11T17:01:36;-1.80;99.90
35668;DHT22;22158;59.280;17.806;2023-02-11T17:04:02;-1.80;99.90
35668;DHT22;22158;59.280;17.806;2023-02-11T17:06:28;-1.80;99.90
35668;DHT22;22158;59.280;17.806;2023-02-11T17:08:54;-1.80;99.90
35668;DHT22;22158;59.280;17.806;2023-02-11T17:11:20;-1.90;99.90
35668;DHT22;22158;59.280;17.806;2023-02-11T17:13:45;-1.90;99.90
35668;DHT22;22158;59.280;17.806;2023-02-11T17:16:20;-1.90;99.90
35668;DHT22;22158;59.280;17.806;2023-02-11T17:18:47;-1.90;99.90
35668;DHT22;22158;59.280;17.806;2023-02-11T17:21:13;-1.90;99.90
35668;DHT22;22158;59.280;17.806;2023-02-11T17:23:39;-2.00;99.90
35668;DHT22;22158;59.280;17.806;2023-02-11T17:26:06;-1.90;99.90
35668;DHT22;22158;59.280;17.806;2023-02-11T17:28:32;-2.00;99.90
35668;DHT22;22158;59.280;17.806;2023-02-11T17:30:58;-2.00;99.90
35668;DHT22;22158;59.280;17.806;2023-02-11T17:33:24;-2.00;99.90
35668;DHT22;22158;59.280;17.806;2023-02-11T17:35:50;-2.00;99.90
35668;DHT22;22158;59.280;17.806;2023-02-11T17:38:16;-2.00;99.90
35668;DHT22;22158;59.280;17.806;2023-02-11T17:40:41;-2.00;99.90
35668;DHT22;22158;59.280;17.806;2023-02-11T17:43:07;-2.00;99.90
35668;DHT22;22158;59.280;17.806;2023-02-11T17:45:33;-2.00;99.90
35668;DHT22;22158;59.280;17.806;2023-02-11T17:47:59;-2.00;99.90
35668;DHT22;22158;59.280;17.806;2023-02-11T17:50:24;-2.00;99.90
35668;DHT22;22158;59.280;17.806;2023-02-11T17:52:50;-2.10;99.90
35668;DHT22;22158;59.280;17.806;2023-02-11T17:55:16;-2.10;99.90
35668;DHT22;22158;59.280;17.806;2023-02-11T17:57:42;-2.20;99.90
35668;DHT22;22158;59.280;17.806;2023-02-11T18:00:08;-2.20;99.90
35668;DHT22;22158;59.280;17.806;2023-02-11T18:02:34;-2.30;99.90
35668;DHT22;22158;59.280;17.806;2023-02-11T18:05:00;-2.30;99.90
35668;DHT22;22158;59.280;17.806;2023-02-11T18:07:26;-2.40;99.90
35668;DHT22;22158;59.280;17.806;2023-02-11T18:09:51;-2.40;99.90
35668;DHT22;22158;59.280;17.806;2023-02-11T18:12:18;-2.60;99.90
35668;DHT22;22158;59.280;17.806;2023-02-11T18:14:54;-2.60;99.90
35668;DHT22;22158;59.280;17.806;2023-02-11T18:17:20;-2.70;99.90
35668;DHT22;22158;59.280;17.806;2023-02-11T18:19:49;-2.70;99.90
35668;DHT22;22158;59.280;17.806;2023-02-11T18:22:17;-2.70;99.90
35668;DHT22;22158;59.280;17.806;2023-02-11T18:24:43;-2.70;99.90
35668;DHT22;22158;59.280;17.806;2023-02-11T18:27:09;-2.70;99.90
35668;DHT22;22158;59.280;17.806;2023-02-11T18:29:34;-2.80;99.90
35668;DHT22;22158;59.280;17.806;2023-02-11T18:32:00;-2.80;99.90
35668;DHT22;22158;59.280;17.806;2023-02-11T18:34:26;-2.80;99.90
35668;DHT22;22158;59.280;17.806;2023-02-11T18:36:52;-2.80;99.90
35668;DHT22;22158;59.280;17.806;2023-02-11T18:39:19;-2.80;99.90
35668;DHT22;22158;59.280;17.806;2023-02-11T18:41:45;-2.80;99.90
35668;DHT22;22158;59.280;17.806;2023-02-11T18:44:11;-2.70;99.90
35668;DHT22;22158;59.280;17.806;2023-02-11T18:46:39;-2.70;99.90
35668;DHT22;22158;59.280;17.806;2023-02-11T18:49:05;-2.70;99.90
35668;DHT22;22158;59.280;17.806;2023-02-11T18:51:31;-2.70;99.90
35668;DHT22;22158;59.280;17.806;2023-02-11T18:53:57;-2.70;99.90
35668;DHT22;22158;59.280;17.806;2023-02-11T18:56:24;-2.80;99.90
35668;DHT22;22158;59.280;17.806;2023-02-11T18:58:52;-2.80;99.90
35668;DHT22;22158;59.280;17.806;2023-02-11T19:01:24;-2.90;99.90
35668;DHT22;22158;59.280;17.806;2023-02-11T19:03:52;-2.90;99.90
35668;DHT22;22158;59.280;17.806;2023-02-11T19:06:23;-3.00;99.90
35668;DHT22;22158;59.280;17.806;2023-02-11T19:08:50;-3.00;99.90
35668;DHT22;22158;59.280;17.806;2023-02-11T19:11:16;-3.00;99.90
35668;DHT22;22158;59.280;17.806;2023-02-11T19:13:44;-3.10;99.90
35668;DHT22;22158;59.280;17.806;2023-02-11T19:16:12;-3.10;99.90
35668;DHT22;22158;59.280;17.806;2023-02-11T19:18:39;-3.20;99.90
35668;DHT22;22158;59.280;17.806;2023-02-11T19:21:07;-3.20;99.90
35668;DHT22;22158;59.280;17.806;2023-02-11T19:23:33;-3.20;99.90
35668;DHT22;22158;59.280;17.806;2023-02-11T19:25:59;-3.20;99.90
35668;DHT22;22158;59.280;17.806;2023-02-11T19:28:25;-3.20;99.90
35668;DHT22;22158;59.280;17.806;2023-02-11T19:30:51;-3.20;99.90
35668;DHT22;22158;59.280;17.806;2023-02-11T19:33:17;-3.10;99.90
35668;DHT22;22158;59.280;17.806;2023-02-11T19:35:42;-3.10;99.90
35668;DHT22;22158;59.280;17.806;2023-02-11T19:38:08;-3.10;99.90
35668;DHT22;22158;59.280;17.806;2023-02-11T19:40:34;-3.10;99.90
35668;DHT22;22158;59.280;17.806;2023-02-11T19:43:00;-3.10;99.90
35668;DHT22;22158;59.280;17.806;2023-02-11T19:45:26;-3.20;99.90
35668;DHT22;22158;59.280;17.806;2023-02-11T19:47:55;-3.20;99.90
35668;DHT22;22158;59.280;17.806;2023-02-11T19:50:24;-3.20;99.90
35668;DHT22;22158;59.280;17.806;2023-02-11T19:52:49;-3.20;99.90
35668;DHT22;22158;59.280;17.806;2023-02-11T19:55:15;-3.10;99.90
35668;DHT22;22158;59.280;17.806;2023-02-11T19:57:41;-3.10;99.90
35668;DHT22;22158;59.280;17.806;2023-02-11T20:00:07;-3.10;99.90
35668;DHT22;22158;59.280;17.806;2023-02-11T20:02:36;-3.10;99.90
35668;DHT22;22158;59.280;17.806;2023-02-11T20:05:02;-3.10;99.90
35668;DHT22;22158;59.280;17.806;2023-02-11T20:07:28;-3.10;99.90
35668;DHT22;22158;59.280;17.806;2023-02-11T20:09:55;-3.10;99.90
35668;DHT22;22158;59.280;17.806;2023-02-11T20:12:20;-3.10;99.90
35668;DHT22;22158;59.280;17.806;2023-02-11T20:14:46;-3.20;99.90
35668;DHT22;22158;59.280;17.806;2023-02-11T20:17:12;-3.20;99.90
35668;DHT22;22158;59.280;17.806;2023-02-11T20:19:37;-3.20;99.90
35668;DHT22;22158;59.280;17.806;2023-02-11T20:22:03;-3.20;99.90
35668;DHT22;22158;59.280;17.806;2023-02-11T20:24:29;-3.10;99.90
35668;DHT22;22158;59.280;17.806;2023-02-11T20:26:54;-3.20;99.90
35668;DHT22;22158;59.280;17.806;2023-02-11T20:29:20;-3.20;99.90
35668;DHT22;22158;59.280;17.806;2023-02-11T20:31:48;-3.30;99.90
35668;DHT22;22158;59.280;17.806;2023-02-11T20:34:14;-3.30;99.90
35668;DHT22;22158;59.280;17.806;2023-02-11T20:36:42;-3.30;99.90
35668;DHT22;22158;59.280;17.806;2023-02-11T20:39:10;-3.30;99.90
35668;DHT22;22158;59.280;17.806;2023-02-11T20:41:36;-3.30;99.90
35668;DHT22;22158;59.280;17.806;2023-02-11T20:44:06;-3.30;99.90
35668;DHT22;22158;59.280;17.806;2023-02-11T20:46:33;-3.40;99.90
35668;DHT22;22158;59.280;17.806;2023-02-11T20:48:59;-3.40;99.90
35668;DHT22;22158;59.280;17.806;2023-02-11T20:51:30;-3.50;99.90
35668;DHT22;22158;59.280;17.806;2023-02-11T20:53:58;-3.50;99.90
35668;DHT22;22158;59.280;17.806;2023-02-11T20:56:29;-3.50;99.90
35668;DHT22;22158;59.280;17.806;2023-02-11T20:58:57;-3.50;99.90
35668;DHT22;22158;59.280;17.806;2023-02-11T21:01:46;-3.60;99.90
35668;DHT22;22158;59.280;17.806;2023-02-11T21:04:18;-3.60;99.90
35668;DHT22;22158;59.280;17.806;2023-02-11T21:06:47;-3.60;99.90
35668;DHT22;22158;59.280;17.806;2023-02-11T21:09:16;-3.60;99.90
35668;DHT22;22158;59.280;17.806;2023-02-11T21:11:44;-3.70;99.90
35668;DHT22;22158;59.280;17.806;2023-02-11T21:14:10;-3.70;99.90
35668;DHT22;22158;59.280;17.806;2023-02-11T21:16:36;-3.70;99.90
35668;DHT22;22158;59.280;17.806;2023-02-11T21:19:05;-3.70;99.90
35668;DHT22;22158;59.280;17.806;2023-02-11T21:21:33;-3.70;99.90
35668;DHT22;22158;59.280;17.806;2023-02-11T21:23:59;-3.80;99.90
35668;DHT22;22158;59.280;17.806;2023-02-11T21:26:25;-3.80;99.90
35668;DHT22;22158;59.280;17.806;2023-02-11T21:28:50;-3.80;99.90
35668;DHT22;22158;59.280;17.806;2023-02-11T21:31:21;-3.80;99.90
35668;DHT22;22158;59.280;17.806;2023-02-11T21:33:48;-3.80;99.90
35668;DHT22;22158;59.280;17.806;2023-02-11T21:36:14;-3.90;99.90
35668;DHT22;22158;59.280;17.806;2023-02-11T21:38:40;-3.80;99.90
35668;DHT22;22158;59.280;17.806;2023-02-11T21:41:06;-3.80;99.90
35668;DHT22;22158;59.280;17.806;2023-02-11T21:43:32;-3.80;99.90
35668;DHT22;22158;59.280;17.806;2023-02-11T21:45:58;-3.90;99.90
35668;DHT22;22158;59.280;17.806;2023-02-11T21:48:24;-3.80;99.90
35668;DHT22;22158;59.280;17.806;2023-02-11T21:50:53;-3.80;99.90
35668;DHT22;22158;59.280;17.806;2023-02-11T21:53:19;-3.80;99.90
35668;DHT22;22158;59.280;17.806;2023-02-11T21:55:45;-3.80;99.90
35668;DHT22;22158;59.280;17.806;2023-02-11T21:58:12;-3.90;99.90
35668;DHT22;22158;59.280;17.806;2023-02-11T22:00:38;-3.90;99.90
35668;DHT22;22158;59.280;17.806;2023-02-11T22:03:03;-3.90;99.90
35668;DHT22;22158;59.280;17.806;2023-02-11T22:05:29;-3.90;99.90
35668;DHT22;22158;59.280;17.806;2023-02-11T22:07:55;-3.90;99.90
35668;DHT22;22158;59.280;17.806;2023-02-11T22:10:21;-3.90;99.90
35668;DHT22;22158;59.280;17.806;2023-02-11T22:12:47;-3.90;99.90
35668;DHT22;22158;59.280;17.806;2023-02-11T22:15:13;-4.00;99.90
35668;DHT22;22158;59.280;17.806;2023-02-11T22:17:43;-4.00;99.90
35668;DHT22;22158;59.280;17.806;2023-02-11T22:20:09;-4.00;99.90
35668;DHT22;22158;59.280;17.806;2023-02-11T22:22:35;-4.00;99.90
35668;DHT22;22158;59.280;17.806;2023-02-11T22:25:00;-4.00;99.90
35668;DHT22;22158;59.280;17.806;2023-02-11T22:27:27;-4.00;99.90
35668;DHT22;22158;59.280;17.806;2023-02-11T22:29:53;-4.10;99.90
35668;DHT22;22158;59.280;17.806;2023-02-11T22:32:19;-4.10;99.90
35668;DHT22;22158;59.280;17.806;2023-02-11T22:34:44;-4.10;99.90